Time;durP1;ratioP1;P1;durP2;ratioP2;P2;SDS_P1;SDS_P2;PMS_P1;PMS_P2;Temp;Humidity;BMP_temperature;BMP_pressure;BME280_temperature;BME280_humidity;BME280_pressure;Samples;Min_cycle;Max_cycle;Signal;HPM_P1;HPM_P2
2022/05/07 00:00:17;;;;;;;2.37;2.17;;;;;;;17.80;57.47;97193.16;10490834;28;20044;-23
2022/05/07 00:05:19;;;;;;;2.65;2.35;;;;;;;17.79;57.79;97199.06;10490775;28;20252;-25
2022/05/07 00:10:20;;;;;;;2.28;2.08;;;;;;;17.77;57.40;97191.47;10491092;28;20024;-26
2022/05/07 00:15:20;;;;;;;3.08;2.25;;;;;;;17.78;57.41;97187.25;10490555;28;20032;-24
2022/05/07 00:20:21;;;;;;;5.05;2.08;;;;;;;17.77;57.38;97183.88;10528105;28;20482;-24
2022/05/07 00:25:22;;;;;;;3.20;2.13;;;;;;;17.76;57.67;97181.31;10547620;28;20035;-24
2022/05/07 00:30:22;;;;;;;2.97;1.95;;;;;;;17.77;57.18;97173.75;10528097;28;20552;-24
2022/05/07 00:35:23;;;;;;;3.90;2.60;;;;;;;17.81;60.33;97169.53;10490396;28;20497;-24
2022/05/07 00:40:23;;;;;;;4.93;2.83;;;;;;;17.82;62.09;97173.78;10488807;28;20479;-23
2022/05/07 00:45:24;;;;;;;3.40;2.58;;;;;;;17.82;61.85;97164.50;10490058;28;20028;-25
2022/05/07 00:55:44;;;;;;;4.38;2.20;;;;;;;17.60;57.64;97123.75;10517620;28;20077;-24
2022/05/07 01:00:45;;;;;;;4.25;2.50;;;;;;;17.80;57.52;97155.19;10532104;28;20114;-25
2022/05/07 01:05:46;;;;;;;2.97;2.35;;;;;;;17.79;57.62;97150.94;10490927;28;20039;-24
2022/05/07 01:10:48;;;;;;;2.47;2.10;;;;;;;17.80;57.52;97148.44;10501882;28;20460;-25
2022/05/07 01:15:54;;;;;;;2.67;2.03;;;;;;;17.72;57.37;97134.00;10502520;28;20043;-25
2022/05/07 01:20:55;;;;;;;2.83;2.03;;;;;;;17.79;57.34;97143.34;10537356;28;20024;-25
2022/05/07 01:25:58;;;;;;;2.70;2.00;;;;;;;17.79;57.38;97143.34;10506368;28;20040;-24
2022/05/07 01:31:00;;;;;;;3.22;1.92;;;;;;;17.81;57.32;97136.59;10494606;28;20033;-25
2022/05/07 01:36:02;;;;;;;3.20;2.05;;;;;;;17.79;58.72;97141.69;10495969;28;20060;-24
2022/05/07 01:41:04;;;;;;;4.38;2.75;;;;;;;17.84;61.67;97144.25;10494700;28;20127;-24
2022/05/07 01:48:09;;;;;;;3.00;2.40;;;;;;;17.81;61.76;97139.13;10494013;28;20036;-23
2022/05/07 01:51:30;;;;;;;2.40;2.20;;;;;;;17.84;58.65;97141.72;10493713;28;20127;-24
2022/05/07 01:56:30;;;;;;;2.47;2.25;;;;;;;17.82;57.98;97146.75;10495195;28;20032;-23
2022/05/07 02:01:31;;;;;;;2.05;1.80;;;;;;;17.84;57.85;97149.31;10493354;28;20499;-23
2022/05/07 02:06:32;;;;;;;3.78;2.30;;;;;;;17.84;57.42;97149.31;10494697;28;20060;-25
2022/05/07 02:11:32;;;;;;;2.47;2.27;;;;;;;17.83;58.46;97150.16;10494258;28;20534;-24
2022/05/07 02:16:33;;;;;;;2.15;1.95;;;;;;;17.83;57.20;97140.84;10499636;28;20123;-24
2022/05/07 02:21:34;;;;;;;3.13;1.83;;;;;;;17.82;57.40;97135.81;10545331;28;20504;-25
2022/05/07 02:26:34;;;;;;;2.58;1.98;;;;;;;17.84;57.49;97139.19;10507276;28;20290;-25
2022/05/07 02:31:37;;;;;;;2.05;1.85;;;;;;;17.83;57.90;97143.38;10494185;28;20044;-23
2022/05/07 02:36:37;;;;;;;3.20;2.00;;;;;;;17.84;57.73;97145.09;10533494;28;20031;-24
2022/05/07 02:46:59;;;;;;;4.05;2.70;;;;;;;17.79;61.86;97141.69;10481489;28;20139;-23
2022/05/07 02:52:00;;;;;;;2.42;2.20;;;;;;;17.85;58.73;97136.69;10491718;28;20107;-24
2022/05/07 02:57:01;;;;;;;3.30;2.05;;;;;;;17.85;58.76;97135.81;10492601;28;20028;-23
2022/05/07 03:02:01;;;;;;;3.30;2.03;;;;;;;17.85;57.70;97125.69;10492067;28;20028;-24
2022/05/07 03:07:03;;;;;;;3.70;1.90;;;;;;;17.82;58.06;97125.66;10492603;28;20032;-23
2022/05/07 03:12:05;;;;;;;2.05;1.88;;;;;;;17.85;57.78;97130.75;10490389;28;20035;-24
2022/05/07 03:17:06;;;;;;;3.45;1.95;;;;;;;17.85;58.13;97129.09;10508295;28;20036;-26
2022/05/07 03:22:06;;;;;;;2.97;1.77;;;;;;;17.83;57.89;97140.03;10532324;28;20032;-24
2022/05/07 03:27:09;;;;;;;1.98;1.85;;;;;;;17.83;57.91;97138.31;10493379;28;20038;-24
2022/05/07 03:32:09;;;;;;;2.60;1.83;;;;;;;17.83;57.97;97138.31;10499796;28;20028;-23
2022/05/07 03:37:12;;;;;;;2.30;2.10;;;;;;;17.84;58.04;97139.19;10531930;28;20509;-24
2022/05/07 03:42:13;;;;;;;2.67;2.47;;;;;;;17.83;60.57;97132.44;10491086;28;20043;-25
2022/05/07 03:47:13;;;;;;;2.70;2.23;;;;;;;17.79;61.33;97136.63;10489848;28;20033;-24
2022/05/07 03:57:41;;;;;;;2.38;2.10;;;;;;;17.85;58.72;97146.81;10506329;28;20021;-24
2022/05/07 04:02:41;;;;;;;2.30;2.00;;;;;;;17.86;58.65;97147.66;10512203;28;20039;-25
2022/05/07 04:07:56;;;;;;;1.60;1.48;;;;;;;17.86;58.62;97140.03;10526575;28;20294;-26
2022/05/07 04:12:59;;;;;;;2.47;2.03;;;;;;;17.84;58.54;97146.78;10489139;28;20032;-24
2022/05/07 04:18:01;;;;;;;2.10;1.60;;;;;;;17.84;57.82;97150.16;10496513;28;20048;-21
2022/05/07 04:23:04;;;;;;;2.25;2.05;;;;;;;17.84;58.14;97154.38;10521464;28;20058;-22
2022/05/07 04:28:04;;;;;;;2.45;1.83;;;;;;;17.83;58.25;97145.91;10489119;28;20028;-20
2022/05/07 04:33:06;;;;;;;2.58;1.65;;;;;;;17.82;58.57;97146.75;10490700;28;20453;-21
2022/05/07 04:38:06;;;;;;;2.70;2.10;;;;;;;17.83;59.72;97142.56;10489057;28;20020;-22
2022/05/07 04:43:08;;;;;;;2.22;1.85;;;;;;;17.83;60.80;97137.50;10488596;28;20035;-21
2022/05/07 04:48:08;;;;;;;2.20;1.75;;;;;;;17.81;60.98;97145.06;10494445;28;20039;-22
2022/05/07 04:53:11;;;;;;;1.88;1.75;;;;;;;17.82;58.15;97145.94;10496182;28;20024;-21
2022/05/07 04:58:13;;;;;;;2.33;2.13;;;;;;;17.83;58.69;97155.22;10496253;28;20498;-21
2022/05/07 05:03:16;;;;;;;3.70;1.88;;;;;;;17.63;58.53;97118.72;10495270;28;20418;-21
2022/05/07 05:08:26;;;;;;;2.30;1.90;;;;;;;17.83;58.30;97157.75;10503545;28;20118;-21
2022/05/07 05:13:28;;;;;;;1.85;1.50;;;;;;;17.86;58.19;97157.78;10537387;28;20519;-21
2022/05/07 05:18:28;;;;;;;2.28;1.80;;;;;;;17.88;58.46;97162.03;10534459;28;20024;-23
2022/05/07 05:23:29;;;;;;;2.20;2.00;;;;;;;17.81;58.16;97150.13;10526674;28;20059;-22
2022/05/07 05:28:30;;;;;;;2.15;1.90;;;;;;;17.88;57.88;97167.09;10495474;28;20060;-21
2022/05/07 05:33:34;;;;;;;2.17;1.60;;;;;;;17.89;58.06;97165.38;10494371;28;20035;-22
2022/05/07 05:38:42;;;;;;;1.73;1.63;;;;;;;17.90;57.84;97169.66;10504857;28;20077;-22
2022/05/07 05:43:46;;;;;;;1.33;1.23;;;;;;;17.89;58.78;97171.31;10536689;28;20032;-21
2022/05/07 05:48:47;;;;;;;2.53;1.63;;;;;;;17.90;59.57;97167.13;10525549;28;20066;-21
2022/05/07 05:53:47;;;;;;;1.52;1.42;;;;;;;17.92;58.11;97157.84;10511948;28;20042;-22
2022/05/07 05:58:49;;;;;;;3.20;2.40;;;;;;;17.87;58.73;97164.53;10520474;28;20028;-23
2022/05/07 06:03:53;;;;;;;2.17;1.85;;;;;;;17.89;57.94;97162.84;10530616;28;20059;-24
2022/05/07 06:08:54;;;;;;;2.70;1.70;;;;;;;17.90;58.17;97167.13;10524811;28;20024;-24
2022/05/07 06:13:55;;;;;;;4.13;2.08;;;;;;;17.86;58.28;97167.91;10527168;28;20028;-23
2022/05/07 06:18:56;;;;;;;2.20;1.45;;;;;;;17.89;58.06;97165.38;10524988;28;20247;-24
2022/05/07 06:27:28;;;;;;;13.68;1.90;;;;;;;17.92;58.33;97161.19;10535714;28;20039;-23
2022/05/07 06:29:22;;;;;;;3.15;1.73;;;;;;;17.92;58.53;97160.38;10491791;28;20036;-23
2022/05/07 06:34:24;;;;;;;2.70;1.92;;;;;;;17.92;58.03;97162.91;10491678;28;20545;-23
2022/05/07 06:39:28;;;;;;;1.70;1.60;;;;;;;17.89;58.01;97162.84;10503287;28;20410;-24
2022/05/07 06:44:30;;;;;;;3.90;1.98;;;;;;;17.92;60.03;97165.44;10504109;28;20036;-24
2022/05/07 06:49:37;;;;;;;4.73;2.33;;;;;;;17.93;58.88;97164.59;10518831;28;20398;-23
2022/05/07 06:54:37;;;;;;;2.55;1.73;;;;;;;17.94;58.49;97158.69;10520967;28;20028;-23
2022/05/07 06:59:37;;;;;;;1.83;1.63;;;;;;;17.92;58.68;97157.84;10532121;28;20036;-23
2022/05/07 07:04:38;;;;;;;8.52;1.70;;;;;;;17.87;58.68;97145.13;10534177;28;20031;-24
2022/05/07 07:09:39;;;;;;;7.27;2.47;;;;;;;17.86;58.55;97143.44;10513370;28;20039;-24
2022/05/07 07:14:39;;;;;;;2.70;1.73;;;;;;;17.79;58.34;97130.69;10534082;28;20414;-25
2022/05/07 07:19:41;;;;;;;5.57;2.93;;;;;;;17.88;58.23;97151.03;10503488;28;20033;-23
2022/05/07 07:24:42;;;;;;;5.75;2.20;;;;;;;17.89;57.94;97137.53;10542988;28;20147;-23
2022/05/07 07:29:47;;;;;;;4.03;2.42;;;;;;;17.80;58.84;97123.13;10533914;28;20428;-24
2022/05/07 07:34:48;;;;;;;2.10;1.90;;;;;;;17.87;57.67;97135.00;10506989;28;20182;-23
2022/05/07 07:39:48;;;;;;;2.37;1.93;;;;;;;17.87;57.86;97131.59;10534185;28;20032;-23
2022/05/07 07:47:56;;;;;;;5.93;2.90;;;;;;;17.89;58.93;97129.94;10557677;28;20844;-23
2022/05/07 07:50:10;;;;;;;6.72;3.22;;;;;;;17.91;59.33;97126.56;10542665;28;20036;-24
2022/05/07 07:55:10;;;;;;;4.97;2.37;;;;;;;17.92;58.59;97117.31;10508528;28;20070;-23
2022/05/07 08:00:12;;;;;;;3.03;1.80;;;;;;;17.91;57.57;97126.56;10525051;28;20033;-23
2022/05/07 08:05:16;;;;;;;4.75;1.98;;;;;;;17.90;57.61;97136.72;10531106;28;20513;-24
2022/05/07 08:15:36;;;;;;;4.43;2.28;;;;;;;17.90;57.49;97114.75;10513963;28;20482;-23
2022/05/07 08:20:41;;;;;;;11.65;3.28;;;;;;;17.90;59.21;97121.53;10511184;28;20041;-23
2022/05/07 08:25:41;;;;;;;10.63;3.65;;;;;;;17.88;58.72;97120.63;10553406;28;20031;-23
2022/05/07 08:30:42;;;;;;;4.90;2.57;;;;;;;17.83;58.89;97119.75;10580461;28;20031;-23
2022/05/07 08:35:43;;;;;;;4.38;2.42;;;;;;;17.76;58.22;97123.06;10507347;28;20036;-21
2022/05/07 08:40:43;;;;;;;5.65;2.88;;;;;;;17.74;56.47;97119.69;10498272;28;20532;-24
2022/05/07 08:45:44;;;;;;;7.93;2.92;;;;;;;17.86;54.72;97115.56;10536406;28;20437;-22
2022/05/07 08:50:45;;;;;;;4.15;2.70;;;;;;;17.95;54.87;97112.25;10497939;28;20071;-23
2022/05/07 08:55:45;;;;;;;4.55;2.67;;;;;;;17.79;56.02;97115.50;10525767;28;20072;-24
2022/05/07 09:00:46;;;;;;;7.38;2.80;;;;;;;17.80;56.43;97112.13;10530813;28;20028;-23
2022/05/07 09:05:46;;;;;;;8.88;2.70;;;;;;;17.81;56.39;97113.81;10534697;28;20032;-23
2022/05/07 09:10:53;;;;;;;6.13;2.60;;;;;;;17.77;56.19;97109.56;10508185;28;20039;-23
2022/05/07 09:15:56;;;;;;;6.03;2.10;;;;;;;17.81;56.88;97106.22;10498727;28;20025;-25
2022/05/07 09:21:16;;;;;;;5.05;2.22;;;;;;;17.85;56.90;97108.81;10507775;28;20106;-24
2022/05/07 09:26:27;;;;;;;5.43;2.20;;;;;;;17.89;56.90;97102.06;10506225;28;20052;-25
2022/05/07 09:31:32;;;;;;;8.38;2.35;;;;;;;17.90;57.15;97103.78;10524318;28;20025;-23
2022/05/07 09:36:33;;;;;;;5.97;2.42;;;;;;;17.90;57.04;97088.59;10523714;28;20051;-24
2022/05/07 09:41:33;;;;;;;10.00;2.60;;;;;;;17.87;57.39;97097.00;10534752;28;20475;-24
2022/05/07 09:46:35;;;;;;;16.60;3.75;;;;;;;17.89;58.86;97089.41;10522197;28;20036;-25
2022/05/07 09:51:35;;;;;;;17.80;5.22;;;;;;;17.89;59.54;97091.94;10495720;28;20082;-23
2022/05/07 10:02:09;;;;;;;7.80;2.88;;;;;;;17.89;57.63;97089.41;10500526;28;20293;-23
2022/05/07 10:07:30;;;;;;;6.13;2.60;;;;;;;17.87;57.61;97084.34;10494897;28;20078;-23
2022/05/07 10:12:32;;;;;;;3.55;2.40;;;;;;;17.87;57.59;97073.34;10494397;28;20058;-24
2022/05/07 10:17:34;;;;;;;5.47;2.30;;;;;;;17.85;57.62;97072.50;10502549;28;20032;-23
2022/05/07 10:22:36;;;;;;;4.93;2.65;;;;;;;17.87;57.61;97075.88;10527242;28;20099;-23
2022/05/07 10:27:44;;;;;;;3.17;2.40;;;;;;;17.83;57.99;97071.66;10493864;28;20033;-23
2022/05/07 10:32:48;;;;;;;3.85;2.25;;;;;;;17.88;57.52;97072.50;10503506;28;20169;-23
2022/05/07 10:37:48;;;;;;;7.13;2.13;;;;;;;17.87;57.56;97068.28;10531633;28;20052;-23
2022/05/07 10:42:49;;;;;;;2.47;1.90;;;;;;;17.86;57.72;97059.00;10493450;28;20029;-23
2022/05/07 10:47:53;;;;;;;4.28;2.83;;;;;;;17.81;60.55;97048.81;10493217;28;20295;-23
2022/05/07 10:52:55;;;;;;;4.93;3.30;;;;;;;17.85;61.02;97054.78;10496622;28;20028;-23
2022/05/07 10:57:59;;;;;;;5.93;2.55;;;;;;;17.71;59.88;97033.53;10536203;28;20020;-24
2022/05/07 11:02:59;;;;;;;3.90;2.00;;;;;;;17.86;58.16;97052.25;10524871;28;20090;-24
2022/05/07 11:08:02;;;;;;;6.27;2.33;;;;;;;17.86;58.03;97044.66;10496899;28;20039;-24
2022/05/07 11:13:11;;;;;;;3.65;2.33;;;;;;;17.86;57.70;97046.31;10534743;28;20034;-24
2022/05/07 11:18:14;;;;;;;3.40;1.83;;;;;;;17.85;57.61;97042.09;10532851;28;20023;-24
2022/05/07 11:23:14;;;;;;;2.33;1.92;;;;;;;17.85;57.41;97039.56;10548841;28;20446;-24
2022/05/07 11:28:15;;;;;;;5.47;2.20;;;;;;;17.84;57.14;97040.41;10533700;28;20078;-25
2022/05/07 11:33:22;;;;;;;4.40;1.50;;;;;;;17.84;57.61;97042.94;10520299;28;20029;-23
2022/05/07 11:38:23;;;;;;;3.47;1.70;;;;;;;17.83;57.66;97037.00;10491544;28;20063;-23
2022/05/07 11:48:42;;;;;;;3.80;2.40;;;;;;;17.83;60.93;97021.00;10491350;28;20064;-24
2022/05/07 11:53:42;;;;;;;3.60;2.10;;;;;;;17.84;61.36;97022.69;10501511;28;20036;-23
2022/05/07 11:58:44;;;;;;;4.63;2.43;;;;;;;17.83;60.19;97015.94;10532809;28;20456;-24
2022/05/07 12:03:45;;;;;;;3.85;2.10;;;;;;;17.84;59.19;97004.94;10518298;28;20083;-24
2022/05/07 12:08:45;;;;;;;3.88;2.20;;;;;;;17.75;57.71;96992.22;10490726;28;20120;-23
2022/05/07 12:13:47;;;;;;;3.27;2.33;;;;;;;17.76;57.93;96992.22;10490482;28;20552;-23
2022/05/07 12:18:48;;;;;;;2.97;1.58;;;;;;;17.83;57.72;97006.63;10516297;28;20424;-24
2022/05/07 12:34:29;;;;;;;2.55;1.92;;;;;;;17.80;57.45;97001.53;10490341;28;20036;-23
2022/05/07 12:39:30;;;;;;;4.85;1.88;;;;;;;17.78;57.52;96997.31;10507246;28;20028;-24
2022/05/07 12:44:30;;;;;;;3.07;2.10;;;;;;;17.80;57.61;96995.63;10531941;28;20036;-23
2022/05/07 12:49:32;;;;;;;4.93;2.85;;;;;;;17.81;60.82;96992.25;10500358;28;20379;-24
2022/05/07 12:54:32;;;;;;;4.28;2.00;;;;;;;17.83;61.21;96983.81;10489712;28;20434;-23
2022/05/07 12:59:33;;;;;;;3.33;2.40;;;;;;;17.85;60.87;96978.78;10490058;28;20029;-24
2022/05/07 13:04:34;;;;;;;2.75;2.25;;;;;;;17.83;58.19;96975.41;10489427;28;20044;-24
2022/05/07 13:09:34;;;;;;;2.92;1.63;;;;;;;17.80;57.93;96977.91;10494972;28;20425;-24
2022/05/07 13:14:35;;;;;;;2.33;1.43;;;;;;;17.78;57.84;96971.97;10496873;28;20491;-24
2022/05/07 13:19:36;;;;;;;3.38;2.05;;;;;;;17.78;57.92;96969.44;10529322;28;20486;-24
2022/05/07 13:24:36;;;;;;;1.80;1.70;;;;;;;17.79;57.56;96968.59;10536367;28;20044;-23
2022/05/07 13:29:36;;;;;;;1.67;1.57;;;;;;;17.76;57.85;96959.28;10497321;28;20113;-23
2022/05/07 13:34:37;;;;;;;1.87;1.40;;;;;;;17.76;57.72;96949.16;10496377;28;20183;-23
2022/05/07 13:39:37;;;;;;;1.83;1.60;;;;;;;17.77;57.68;96944.97;10496947;28;20486;-23
2022/05/07 13:44:37;;;;;;;1.83;1.40;;;;;;;17.76;57.72;96939.03;10496700;28;20036;-23
2022/05/07 13:49:39;;;;;;;3.23;1.80;;;;;;;17.80;60.96;96947.50;10528222;28;20267;-23
2022/05/07 13:54:39;;;;;;;1.88;1.70;;;;;;;17.82;61.39;96948.38;10518851;28;20127;-24
2022/05/07 13:59:39;;;;;;;2.35;1.77;;;;;;;17.81;61.22;96941.59;10495174;28;20402;-25
2022/05/07 14:04:41;;;;;;;4.83;2.27;;;;;;;17.84;59.23;96928.97;10494386;28;20047;-24
2022/05/07 14:09:47;;;;;;;1.95;1.80;;;;;;;17.67;58.21;96905.25;10494865;28;20502;-24
2022/05/07 14:14:47;;;;;;;1.93;1.43;;;;;;;17.78;57.84;96921.34;10494194;28;20091;-25
2022/05/07 14:19:49;;;;;;;1.80;1.45;;;;;;;17.76;57.88;96915.41;10528107;28;20351;-23
2022/05/07 14:24:50;;;;;;;2.35;1.58;;;;;;;17.74;57.83;96909.50;10515494;28;20441;-24
2022/05/07 14:29:51;;;;;;;1.80;1.42;;;;;;;17.76;57.82;96907.81;10493781;28;20037;-23
2022/05/07 14:34:51;;;;;;;2.60;1.60;;;;;;;17.75;57.66;96901.91;10515552;28;20220;-23
2022/05/07 14:39:52;;;;;;;1.60;1.50;;;;;;;17.75;57.55;96901.91;10514531;28;20401;-24
2022/05/07 14:44:53;;;;;;;1.70;1.20;;;;;;;17.74;57.71;96899.38;10493547;28;20044;-25
2022/05/07 14:49:55;;;;;;;2.60;1.85;;;;;;;17.70;58.97;96887.53;10492784;28;20435;-24
2022/05/07 14:54:55;;;;;;;1.80;1.70;;;;;;;17.84;61.50;96893.53;10493113;28;20040;-25
2022/05/07 14:59:56;;;;;;;3.27;1.97;;;;;;;17.77;61.81;96889.25;10493307;28;20032;-24
2022/05/07 15:04:56;;;;;;;1.92;1.50;;;;;;;17.85;60.22;96892.69;10493289;28;20062;-23
2022/05/07 15:15:16;;;;;;;2.50;1.70;;;;;;;17.77;58.10;96896.84;10493946;28;20033;-23
2022/05/07 15:20:16;;;;;;;2.22;1.20;;;;;;;17.72;58.02;96880.78;10497334;28;20028;-23
2022/05/07 15:25:18;;;;;;;1.67;1.45;;;;;;;17.76;58.04;96890.09;10527150;28;20040;-24
2022/05/07 15:30:19;;;;;;;1.52;1.42;;;;;;;17.75;57.93;96896.00;10493025;28;20037;-24
2022/05/07 15:40:38;;;;;;;1.98;1.77;;;;;;;17.73;57.93;96902.75;10493562;28;20024;-24
2022/05/07 15:45:39;;;;;;;1.63;1.50;;;;;;;17.71;57.90;96895.13;10492757;28;20036;-25
2022/05/07 15:50:40;;;;;;;1.67;1.58;;;;;;;17.72;57.90;96894.28;10493951;28;20299;-24
2022/05/07 15:55:43;;;;;;;1.73;1.60;;;;;;;17.81;61.88;96885.88;10493975;28;20056;-24
2022/05/07 16:00:43;;;;;;;2.38;1.70;;;;;;;17.81;62.05;96876.63;10493907;28;20085;-24
2022/05/07 16:05:44;;;;;;;1.70;1.60;;;;;;;17.83;60.26;96869.03;10492976;28;20097;-25
2022/05/07 16:10:44;;;;;;;2.20;1.67;;;;;;;17.81;58.56;96878.28;10493155;28;20066;-25
2022/05/07 16:15:45;;;;;;;1.40;1.30;;;;;;;17.76;58.05;96893.47;10490868;28;20102;-24
2022/05/07 16:20:46;;;;;;;1.40;1.30;;;;;;;17.74;58.06;96889.25;10503039;28;20385;-23
2022/05/07 16:25:47;;;;;;;1.90;1.38;;;;;;;17.74;58.04;96895.13;10516912;28;20544;-24
2022/05/07 16:30:50;;;;;;;1.70;1.60;;;;;;;17.73;57.83;96893.44;10490694;28;20101;-23
2022/05/07 16:35:50;;;;;;;1.73;1.55;;;;;;;17.73;57.90;96892.63;10490376;28;20178;-24
2022/05/07 16:40:50;;;;;;;1.63;1.40;;;;;;;17.72;57.97;96898.50;10491157;28;20518;-24
2022/05/07 16:45:51;;;;;;;1.53;1.20;;;;;;;17.71;57.68;96894.28;10498578;28;20339;-23
2022/05/07 16:50:52;;;;;;;1.20;1.10;;;;;;;17.70;57.85;96890.91;10534401;28;20028;-25
2022/05/07 16:55:52;;;;;;;2.58;1.80;;;;;;;17.84;62.66;96890.97;10510294;28;20028;-24
2022/05/07 17:00:53;;;;;;;1.93;1.80;;;;;;;17.86;62.68;96890.16;10498305;28;20020;-23
2022/05/07 17:05:54;;;;;;;1.67;1.57;;;;;;;17.88;60.88;96897.75;10530242;28;20081;-23
2022/05/07 17:10:54;;;;;;;1.60;1.40;;;;;;;17.82;58.55;96902.78;10509996;28;20033;-25
2022/05/07 17:15:57;;;;;;;2.15;1.67;;;;;;;17.76;58.00;96897.69;10502705;28;20103;-24
2022/05/07 17:20:59;;;;;;;1.70;1.50;;;;;;;17.73;58.13;96898.50;10539829;28;20055;-24
2022/05/07 17:26:00;;;;;;;1.50;1.20;;;;;;;17.72;57.98;96906.09;10538135;28;20150;-24
2022/05/07 17:31:01;;;;;;;1.67;1.40;;;;;;;17.71;57.93;96905.25;10534208;28;20032;-23
2022/05/07 17:36:04;;;;;;;1.40;1.30;;;;;;;17.70;57.77;96907.78;10496661;28;20041;-23
2022/05/07 17:41:04;;;;;;;1.95;1.20;;;;;;;17.71;57.77;96909.47;10495768;28;20035;-23
2022/05/07 17:46:05;;;;;;;1.30;1.20;;;;;;;17.71;57.74;96914.53;10497137;28;20047;-24
2022/05/07 17:51:07;;;;;;;0.98;0.90;;;;;;;17.68;57.88;96914.53;10537534;28;20028;-23
2022/05/07 17:56:07;;;;;;;1.98;1.88;;;;;;;17.79;62.67;96915.44;10504985;28;20042;-24
2022/05/07 18:01:07;;;;;;;1.63;1.20;;;;;;;17.86;63.18;96919.69;10496465;28;20032;-25
2022/05/07 18:06:08;;;;;;;2.00;1.80;;;;;;;17.84;61.39;96911.25;10495651;28;20645;-24
2022/05/07 18:11:08;;;;;;;1.67;1.40;;;;;;;17.85;59.39;96923.06;10526043;28;20024;-24
2022/05/07 18:16:09;;;;;;;1.70;1.60;;;;;;;17.77;58.05;96919.63;10536057;28;20546;-23
2022/05/07 18:21:09;;;;;;;1.55;1.30;;;;;;;17.74;57.89;96929.75;10511788;28;20023;-23
2022/05/07 18:26:10;;;;;;;1.60;1.00;;;;;;;17.72;58.16;96932.28;10514418;28;20043;-23
2022/05/07 18:31:12;;;;;;;1.55;1.20;;;;;;;17.72;58.12;96934.81;10493894;28;20520;-23
2022/05/07 18:46:50;;;;;;;1.52;1.15;;;;;;;17.69;57.56;96942.41;10493941;28;20063;-23
2022/05/07 18:51:50;;;;;;;1.23;1.13;;;;;;;17.70;57.67;96953.34;10492834;28;20050;-25
2022/05/07 19:02:10;;;;;;;1.50;1.40;;;;;;;17.84;63.24;96957.66;10492548;28;20151;-24
2022/05/07 19:07:11;;;;;;;1.90;1.40;;;;;;;17.89;62.25;96965.28;10490130;28;20042;-24
2022/05/07 19:12:11;;;;;;;2.10;1.40;;;;;;;17.85;59.80;96984.72;10491913;28;20066;-23
2022/05/07 19:17:12;;;;;;;1.30;1.17;;;;;;;17.77;58.32;96980.41;10504355;28;20097;-23
2022/05/07 19:22:12;;;;;;;1.25;1.13;;;;;;;17.74;58.13;96985.47;10534230;28;20102;-24
2022/05/07 19:27:13;;;;;;;1.70;1.20;;;;;;;17.72;58.00;96997.25;10493582;28;20040;-23
2022/05/07 19:32:13;;;;;;;1.27;1.17;;;;;;;17.66;58.02;96989.63;10491783;28;20032;-23
2022/05/07 19:37:14;;;;;;;1.53;1.43;;;;;;;17.69;57.77;97018.34;10492183;28;20047;-25
2022/05/07 19:42:14;;;;;;;1.30;1.20;;;;;;;17.69;57.82;97020.03;10530927;28;20111;-25
2022/05/07 19:47:19;;;;;;;1.23;1.13;;;;;;;17.69;57.86;97015.81;10532934;28;20039;-24
2022/05/07 19:52:19;;;;;;;1.75;1.30;;;;;;;17.67;57.57;97025.06;10491715;28;20699;-24
2022/05/07 19:57:20;;;;;;;1.37;1.27;;;;;;;17.69;57.80;97032.69;10531694;28;20098;-24
2022/05/07 20:02:20;;;;;;;1.50;1.40;;;;;;;17.83;62.93;97036.19;10526076;28;20768;-25
2022/05/07 20:07:21;;;;;;;2.20;2.00;;;;;;;17.83;62.76;97037.00;10491474;28;20056;-23
2022/05/07 20:12:24;;;;;;;1.20;1.10;;;;;;;17.87;60.55;97048.03;10490847;28;20043;-23
2022/05/07 20:17:24;;;;;;;1.40;1.30;;;;;;;17.83;59.05;97046.31;10509961;28;20117;-25
2022/05/07 20:22:25;;;;;;;1.98;1.40;;;;;;;17.77;58.23;97051.31;10540388;28;20085;-24
2022/05/07 20:27:25;;;;;;;1.33;1.23;;;;;;;17.72;58.09;97048.75;10499150;28;20039;-24
2022/05/07 20:32:26;;;;;;;1.30;1.20;;;;;;;17.71;58.01;97046.19;10507132;28;20089;-23
2022/05/07 20:37:27;;;;;;;1.23;1.13;;;;;;;17.69;58.19;97047.88;10539509;28;20290;-24
2022/05/07 20:42:27;;;;;;;1.43;1.33;;;;;;;17.69;57.78;97055.47;10498583;28;20391;-23
2022/05/07 20:47:29;;;;;;;1.25;1.15;;;;;;;17.66;57.83;97052.94;10510054;28;20032;-23
2022/05/07 20:52:31;;;;;;;2.05;1.10;;;;;;;17.67;57.67;97054.63;10538706;28;20154;-24
2022/05/07 20:57:31;;;;;;;1.27;1.17;;;;;;;17.66;57.50;97058.00;10498369;28;20107;-24
2022/05/07 21:02:31;;;;;;;1.07;1.00;;;;;;;17.77;62.17;97053.84;10497282;28;20044;-25
2022/05/07 21:07:32;;;;;;;1.50;1.40;;;;;;;17.84;62.73;97056.44;10497256;28;20036;-24
2022/05/07 21:12:32;;;;;;;1.30;1.20;;;;;;;17.86;61.55;97057.31;10497879;28;20641;-24
2022/05/07 21:17:33;;;;;;;1.17;1.08;;;;;;;17.83;59.74;97054.75;10505496;28;20489;-25
2022/05/07 21:22:33;;;;;;;1.60;1.50;;;;;;;17.79;58.52;97057.25;10530040;28;20040;-23
2022/05/07 21:27:33;;;;;;;1.30;1.13;;;;;;;17.75;58.12;97063.97;10496221;28;20032;-23
2022/05/07 21:32:35;;;;;;;1.45;1.13;;;;;;;17.73;58.12;97067.34;10501572;28;20097;-25
2022/05/07 21:37:36;;;;;;;1.20;1.10;;;;;;;17.72;57.92;97070.69;10537393;28;20032;-23
2022/05/07 21:42:36;;;;;;;1.10;1.00;;;;;;;17.70;57.86;97069.81;10496364;28;20071;-25
2022/05/07 21:47:37;;;;;;;1.10;1.00;;;;;;;17.69;57.90;97074.06;10496440;28;20037;-24
2022/05/07 21:52:37;;;;;;;0.90;0.90;;;;;;;17.69;57.83;97078.28;10495850;28;20291;-23
2022/05/07 21:57:38;;;;;;;0.90;0.90;;;;;;;17.65;57.68;97074.03;10496017;28;20032;-22
2022/05/07 22:02:38;;;;;;;2.45;1.10;;;;;;;17.66;57.51;97074.03;10495679;28;20032;-23
2022/05/07 22:07:39;;;;;;;1.60;1.50;;;;;;;17.79;62.39;97067.38;10496249;28;20037;-24
2022/05/07 22:12:39;;;;;;;1.25;1.15;;;;;;;17.83;62.66;97077.53;10537310;28;20117;-23
2022/05/07 22:17:40;;;;;;;1.33;1.23;;;;;;;17.82;60.78;97069.94;10527015;28;20548;-23
2022/05/07 22:22:40;;;;;;;1.88;1.30;;;;;;;17.80;58.92;97071.59;10527047;28;20042;-24
2022/05/07 22:27:41;;;;;;;1.17;1.07;;;;;;;17.76;58.28;97078.31;10494119;28;20096;-24
2022/05/07 22:32:42;;;;;;;1.48;1.38;;;;;;;17.74;58.25;97076.63;10515127;28;20406;-23
2022/05/07 22:37:43;;;;;;;1.40;1.30;;;;;;;17.70;57.92;97070.69;10533718;28;20027;-23
2022/05/07 22:42:45;;;;;;;1.33;1.23;;;;;;;17.69;58.04;97073.19;10493217;28;20611;-24
2022/05/07 22:47:47;;;;;;;1.40;1.30;;;;;;;17.66;57.97;97061.34;10502164;28;20032;-24
2022/05/07 22:52:47;;;;;;;1.23;1.13;;;;;;;17.68;57.70;97071.50;10531739;28;20568;-24
2022/05/07 22:57:48;;;;;;;1.50;1.40;;;;;;;17.67;57.75;97069.81;10492853;28;20188;-24
2022/05/07 23:02:48;;;;;;;1.30;1.20;;;;;;;17.66;57.77;97074.03;10492788;28;20123;-23
2022/05/07 23:07:48;;;;;;;1.37;1.27;;;;;;;17.76;62.19;97072.44;10492573;28;20028;-23
2022/05/07 23:12:49;;;;;;;1.33;1.23;;;;;;;17.83;62.36;97076.72;10493138;28;20041;-24
2022/05/07 23:17:49;;;;;;;1.00;1.00;;;;;;;17.84;61.44;97073.34;10496848;28;20152;-24
2022/05/07 23:22:49;;;;;;;1.33;1.23;;;;;;;17.75;59.76;97063.97;10525144;28;20035;-23
2022/05/07 23:27:50;;;;;;;1.10;1.00;;;;;;;17.74;58.96;97066.50;10491625;28;20419;-24
2022/05/07 23:32:51;;;;;;;1.77;1.38;;;;;;;17.73;58.16;97069.88;10491235;28;20293;-25
2022/05/07 23:37:52;;;;;;;1.25;1.15;;;;;;;17.71;58.00;97066.47;10491682;28;20478;-24
2022/05/07 23:42:52;;;;;;;1.48;1.38;;;;;;;17.70;57.76;97062.22;10491176;28;20040;-23
2022/05/07 23:47:52;;;;;;;1.47;1.37;;;;;;;17.50;57.98;97036.75;10490818;28;20036;-24
2022/05/07 23:52:53;;;;;;;1.30;1.20;;;;;;;17.66;57.74;97063.06;10490056;28;20077;-24
2022/05/07 23:57:53;;;;;;;1.35;1.25;;;;;;;17.65;57.74;97061.38;10490971;28;20028;-24
